Traveller II — WDF7546 — position and weather

sailwx.info

Track history (hours):
 
Tides and Currents Weather Stations Pressure Air Temp Water Temp Dewpoint Dewpoint Depression Visibility Wind Speed Wind Dir Waves Ship Positions

Traveller II

Owner: Luedtke, Richard R, Manahawkin, NJ. More information available from US FCC via Universal Licensing System and Coast Guard Vessel Documentation Center.

Last reported at 2018-Jul-02 17:23 UTC. Time now 2018-Jul-20 02:59 UTC.
Position N 39°46' W 074°06'.
Warning: this ship's position is 17 days out of date.

Length 13 m.

Type: Fishing. MMSI: 367485580.

Date/timePositionNaut miles runAvg speedWind from/ knotsBaromVisibWave heightAir tempDewpointWater temp
2018-Jul-02 17:23N 39°46' W 074°06'6 0.7
2018-Jul-02 09:03N 39°52' W 074°05'1 9.1
2018-Jul-02 08:56N 39°51' W 074°05'4 9.0
2018-Jul-02 08:29N 39°47' W 074°05'  
2018-Jun-29 15:26N 39°46' W 074°05'1 0.2
2018-Jun-29 08:40N 39°48' W 074°05'2 9.6
2018-Jun-29 08:30N 39°46' W 074°05'2 0.0
2018-Jun-27 09:14N 39°48' W 074°05'2 9.4
2018-Jun-27 09:00N 39°46' W 074°05'1 0.0
2018-Jun-26 17:54N 39°46' W 074°06'3 0.3
2018-Jun-26 09:09N 39°48' W 074°05'1 8.9
2018-Jun-26 09:00N 39°47' W 074°05'1 0.1
2018-Jun-25 18:23N 39°46' W 074°06'2 6.2
2018-Jun-25 18:00N 39°44' W 074°06'1 2.0
2018-Jun-25 17:30N 39°43' W 074°07'1 1.1
2018-Jun-25 16:59N 39°43' W 074°07'1 1.1
2018-Jun-25 16:27N 39°43' W 074°07'0 0.5
2018-Jun-25 15:57N 39°43' W 074°07'1 1.3
2018-Jun-25 15:30N 39°43' W 074°07'0 0.6
2018-Jun-25 14:58N 39°43' W 074°07'1 1.3
2018-Jun-25 14:30N 39°43' W 074°07'3 5.6
2018-Jun-25 14:00N 39°40' W 074°08'3 4.9
2018-Jun-25 13:28N 39°38' W 074°09'0 0.8
2018-Jun-25 13:00N 39°38' W 074°09'0 0.2
2018-Jun-25 12:30N 39°38' W 074°09'1 1.0
2018-Jun-25 11:57N 39°38' W 074°10'0 0.1
2018-Jun-25 11:24N 39°38' W 074°10'0 0.8
2018-Jun-25 11:00N 39°38' W 074°10'0 0.1
2018-Jun-25 10:29N 39°38' W 074°10'0 0.3
2018-Jun-25 09:59N 39°38' W 074°10'3 7.0
2018-Jun-25 09:30N 39°41' W 074°08'5 9.2
2018-Jun-25 08:59N 39°45' W 074°05'1 0.1
2018-Jun-24 15:48N 39°46' W 074°07'2 5.7
2018-Jun-24 15:30N 39°45' W 074°05'2 3.7
2018-Jun-24 14:52N 39°43' W 074°07'1 1.3
2018-Jun-24 14:28N 39°43' W 074°07'0 0.4
2018-Jun-24 14:00N 39°43' W 074°07'0 0.7
2018-Jun-24 13:27N 39°43' W 074°07'1 3.0
2018-Jun-24 13:00N 39°43' W 074°05'1 2.1
2018-Jun-24 12:27N 39°43' W 074°07'1 3.4
2018-Jun-24 12:00N 39°43' W 074°05'1 1.7
2018-Jun-24 11:30N 39°43' W 074°06'0 0.5
2018-Jun-24 10:59N 39°43' W 074°06'0 0.9
2018-Jun-24 10:30N 39°43' W 074°07'0 0.9
2018-Jun-24 09:58N 39°43' W 074°07'1 2.3
2018-Jun-24 09:29N 39°42' W 074°07'4 6.8
2018-Jun-24 08:58N 39°46' W 074°06'  
Track history (hours):
 
Tides and Currents Weather Stations Pressure Air Temp Water Temp Dewpoint Dewpoint Depression Visibility Wind Speed Wind Dir Waves Ship Positions

Traveller II

Owner: Luedtke, Richard R, Manahawkin, NJ. More information available from US FCC via Universal Licensing System and Coast Guard Vessel Documentation Center.

Last reported at 2018-Jul-02 17:23 UTC. Time now 2018-Jul-20 02:59 UTC.
Position N 39°46' W 074°06'.
Warning: this ship's position is 17 days out of date.

Length 13 m.

Type: Fishing. MMSI: 367485580.

Date/timePositionNaut miles runAvg speedWind from/ knotsBaromVisibWave heightAir tempDewpointWater temp
2018-Jul-02 17:23N 39°46' W 074°06'6 0.7
2018-Jul-02 09:03N 39°52' W 074°05'1 9.1
2018-Jul-02 08:56N 39°51' W 074°05'4 9.0
2018-Jul-02 08:29N 39°47' W 074°05'  
2018-Jun-29 15:26N 39°46' W 074°05'1 0.2
2018-Jun-29 08:40N 39°48' W 074°05'2 9.6
2018-Jun-29 08:30N 39°46' W 074°05'2 0.0
2018-Jun-27 09:14N 39°48' W 074°05'2 9.4
2018-Jun-27 09:00N 39°46' W 074°05'1 0.0
2018-Jun-26 17:54N 39°46' W 074°06'3 0.3
2018-Jun-26 09:09N 39°48' W 074°05'1 8.9
2018-Jun-26 09:00N 39°47' W 074°05'1 0.1
2018-Jun-25 18:23N 39°46' W 074°06'2 6.2
2018-Jun-25 18:00N 39°44' W 074°06'1 2.0
2018-Jun-25 17:30N 39°43' W 074°07'1 1.1
2018-Jun-25 16:59N 39°43' W 074°07'1 1.1
2018-Jun-25 16:27N 39°43' W 074°07'0 0.5
2018-Jun-25 15:57N 39°43' W 074°07'1 1.3
2018-Jun-25 15:30N 39°43' W 074°07'0 0.6
2018-Jun-25 14:58N 39°43' W 074°07'1 1.3
2018-Jun-25 14:30N 39°43' W 074°07'3 5.6
2018-Jun-25 14:00N 39°40' W 074°08'3 4.9
2018-Jun-25 13:28N 39°38' W 074°09'0 0.8
2018-Jun-25 13:00N 39°38' W 074°09'0 0.2
2018-Jun-25 12:30N 39°38' W 074°09'1 1.0
2018-Jun-25 11:57N 39°38' W 074°10'0 0.1
2018-Jun-25 11:24N 39°38' W 074°10'0 0.8
2018-Jun-25 11:00N 39°38' W 074°10'0 0.1
2018-Jun-25 10:29N 39°38' W 074°10'0 0.3
2018-Jun-25 09:59N 39°38' W 074°10'3 7.0
2018-Jun-25 09:30N 39°41' W 074°08'5 9.2
2018-Jun-25 08:59N 39°45' W 074°05'1 0.1
2018-Jun-24 15:48N 39°46' W 074°07'2 5.7
2018-Jun-24 15:30N 39°45' W 074°05'2 3.7
2018-Jun-24 14:52N 39°43' W 074°07'1 1.3
2018-Jun-24 14:28N 39°43' W 074°07'0 0.4
2018-Jun-24 14:00N 39°43' W 074°07'0 0.7
2018-Jun-24 13:27N 39°43' W 074°07'1 3.0
2018-Jun-24 13:00N 39°43' W 074°05'1 2.1
2018-Jun-24 12:27N 39°43' W 074°07'1 3.4
2018-Jun-24 12:00N 39°43' W 074°05'1 1.7
2018-Jun-24 11:30N 39°43' W 074°06'0 0.5
2018-Jun-24 10:59N 39°43' W 074°06'0 0.9
2018-Jun-24 10:30N 39°43' W 074°07'0 0.9
2018-Jun-24 09:58N 39°43' W 074°07'1 2.3
2018-Jun-24 09:29N 39°42' W 074°07'4 6.8
2018-Jun-24 08:58N 39°46' W 074°06'  

Dump ship's entire track history